Terminal Aerodrome Forecast
Issued by NWS Wilmington, OH

Current Version | Previous Version | Graphics & Text | Print | Product List | Glossary On
Versions: 1 2 3 4 5 6 7 8 9 10 11 12 13 14 15 16 17 18 19
000
FTUS41 KILN 281100
TAFCMH
TAF
KCMH 281139Z 2812/0112 10005KT P6SM BKN100
     FM281800 10006KT P6SM SCT025 BKN070
     FM010400 11003KT 3SM -SN BKN025 OVC050
     FM010600 12003KT 1SM -SN OVC012
      TEMPO 0107/0111 1/2SM SN OVC008=

USA.gov is the U.S. government's official web portal to all federal, state and local government web resources and services.